Time;durP1;ratioP1;P1;durP2;ratioP2;P2;SDS_P1;SDS_P2;PMS_P1;PMS_P2;Temp;Humidity;BMP_temperature;BMP_pressure;BME280_temperature;BME280_humidity;BME280_pressure;Samples;Min_cycle;Max_cycle;Signal;HPM_P1;HPM_P2
2022/07/08 00:00:38;;;;;;;19.55;7.20;;;23.00;62.10;;;;;;4889337;29;20533;-73
2022/07/08 00:03:04;;;;;;;18.50;6.63;;;23.00;62.10;;;;;;4890646;29;20040;-73
2022/07/08 00:05:30;;;;;;;17.88;6.63;;;23.00;62.70;;;;;;4880316;29;20382;-73
2022/07/08 00:07:56;;;;;;;19.98;7.43;;;23.00;62.00;;;;;;4878911;29;20040;-73
2022/07/08 00:10:23;;;;;;;16.50;6.32;;;23.00;63.10;;;;;;4876582;29;20029;-73
2022/07/08 00:12:49;;;;;;;18.73;6.63;;;23.00;63.10;;;;;;4880394;29;20478;-73
2022/07/08 00:15:14;;;;;;;25.90;6.93;;;23.00;62.60;;;;;;4886248;29;20026;-73
2022/07/08 00:17:40;;;;;;;17.33;6.25;;;23.00;62.60;;;;;;4883532;29;20029;-73
2022/07/08 00:20:07;;;;;;;19.52;6.00;;;23.00;62.40;;;;;;4880992;29;20146;-73
2022/07/08 00:22:33;;;;;;;16.35;6.15;;;23.00;62.40;;;;;;4882359;29;20039;-73
2022/07/08 00:25:00;;;;;;;17.25;6.22;;;23.00;62.40;;;;;;4891109;29;20398;-73
2022/07/08 00:27:26;;;;;;;18.90;6.20;;;23.00;62.50;;;;;;4883647;29;20092;-73
2022/07/08 00:29:51;;;;;;;23.13;7.00;;;23.00;64.30;;;;;;4878159;29;20111;-73
2022/07/08 00:32:18;;;;;;;21.15;6.43;;;23.00;64.10;;;;;;4878160;29;20136;-73
2022/07/08 00:34:44;;;;;;;20.27;6.40;;;23.00;63.70;;;;;;4882550;29;20517;-73
2022/07/08 00:37:09;;;;;;;19.70;5.70;;;23.00;64.40;;;;;;4891735;29;20356;-73
2022/07/08 00:39:35;;;;;;;17.15;5.88;;;23.00;64.80;;;;;;4898553;29;20489;-74
2022/07/08 00:42:01;;;;;;;16.23;5.40;;;23.00;64.20;;;;;;4882825;29;20067;-71
2022/07/08 00:44:27;;;;;;;17.17;6.10;;;23.10;64.80;;;;;;4879331;29;20035;-72
2022/07/08 00:46:53;;;;;;;17.45;6.20;;;23.10;64.60;;;;;;4886960;29;20443;-71
2022/07/08 00:49:19;;;;;;;18.20;5.70;;;23.10;64.40;;;;;;4884982;29;20025;-72
2022/07/08 00:51:46;;;;;;;16.98;5.63;;;23.10;64.40;;;;;;4887128;29;20044;-72
2022/07/08 00:54:21;;;;;;;16.00;5.88;;;23.10;64.50;;;;;;4868804;29;20036;-72
2022/07/08 00:56:48;;;;;;;15.00;5.15;;;23.10;64.90;;;;;;4886199;29;20033;-72
2022/07/08 00:59:14;;;;;;;16.75;5.25;;;23.10;64.60;;;;;;4862151;29;20048;-72
2022/07/08 01:01:40;;;;;;;16.52;5.85;;;23.10;64.90;;;;;;4878545;29;20039;-71
2022/07/08 01:04:07;;;;;;;17.20;5.15;;;23.10;65.20;;;;;;4885769;29;20033;-72
2022/07/08 01:06:33;;;;;;;15.27;5.22;;;23.10;65.60;;;;;;4882768;29;20016;-72
2022/07/08 01:08:59;;;;;;;13.52;5.00;;;23.10;65.40;;;;;;4883241;29;20112;-72
2022/07/08 01:11:26;;;;;;;17.08;4.97;;;23.10;65.50;;;;;;4883513;29;20478;-72
2022/07/08 01:13:52;;;;;;;12.60;5.18;;;23.10;65.70;;;;;;4885620;29;20033;-72
2022/07/08 01:16:18;;;;;;;13.50;5.05;;;23.10;65.70;;;;;;4879878;29;20032;-72
2022/07/08 01:18:45;;;;;;;16.33;5.28;;;23.10;66.30;;;;;;4885656;29;20522;-71
2022/07/08 01:21:11;;;;;;;14.35;4.70;;;23.10;65.70;;;;;;4886729;29;20374;-72
2022/07/08 01:23:36;;;;;;;16.60;5.10;;;23.10;65.80;;;;;;4878162;29;20029;-72
2022/07/08 01:26:09;;;;;;;14.60;4.90;;;23.10;65.70;;;;;;4877335;29;20022;-72
2022/07/08 01:28:36;;;;;;;15.00;5.13;;;23.10;66.30;;;;;;4884093;29;20074;-72
2022/07/08 01:31:05;;;;;;;14.52;4.93;;;23.10;65.90;;;;;;4890301;29;20036;-72
2022/07/08 01:33:31;;;;;;;11.98;4.60;;;23.10;65.70;;;;;;4884876;29;20052;-72
2022/07/08 01:35:57;;;;;;;13.43;4.55;;;23.10;65.70;;;;;;4884663;29;20049;-72
2022/07/08 01:38:22;;;;;;;15.30;4.93;;;23.10;65.80;;;;;;4886035;29;20104;-72
2022/07/08 01:40:48;;;;;;;13.88;4.78;;;23.10;66.50;;;;;;4877501;29;20041;-73
2022/07/08 01:43:14;;;;;;;13.38;4.30;;;23.20;66.10;;;;;;4884794;29;20398;-72
2022/07/08 01:45:40;;;;;;;16.77;4.50;;;23.20;66.70;;;;;;4885128;29;20066;-72
2022/07/08 01:48:06;;;;;;;14.43;4.88;;;23.20;66.50;;;;;;4878828;29;20036;-71
2022/07/08 01:50:32;;;;;;;17.33;4.68;;;23.10;66.50;;;;;;4884049;29;20029;-71
2022/07/08 01:52:58;;;;;;;13.38;5.00;;;23.20;66.70;;;;;;4877627;29;20034;-72
2022/07/08 01:55:23;;;;;;;15.18;6.70;;;23.10;66.70;;;;;;4888480;29;20490;-72
2022/07/08 01:57:49;;;;;;;20.50;6.63;;;23.10;66.80;;;;;;4877652;29;20033;-71
2022/07/08 02:00:16;;;;;;;16.58;6.20;;;23.10;66.90;;;;;;4878028;29;20494;-72
2022/07/08 02:02:42;;;;;;;16.67;6.18;;;23.10;66.60;;;;;;4877896;29;20485;-72
2022/07/08 02:05:08;;;;;;;17.35;4.38;;;23.10;66.60;;;;;;4886582;29;20133;-73
2022/07/08 02:07:35;;;;;;;14.73;3.28;;;23.00;63.60;;;;;;4880628;29;20020;-74
2022/07/08 02:10:02;;;;;;;14.23;3.85;;;23.00;63.10;;;;;;4879756;29;20546;-73
2022/07/08 02:12:28;;;;;;;22.05;5.32;;;22.90;61.90;;;;;;4887127;29;20108;-73
2022/07/08 02:15:01;;;;;;;17.67;4.10;;;22.90;61.70;;;;;;4886140;29;20124;-73
2022/07/08 02:17:30;;;;;;;15.43;3.70;;;22.80;62.00;;;;;;4880328;29;20497;-74
2022/07/08 02:19:56;;;;;;;18.58;4.28;;;22.80;62.10;;;;;;4881761;29;20500;-73
2022/07/08 02:22:23;;;;;;;17.92;3.92;;;22.80;61.80;;;;;;4885469;29;20474;-73
2022/07/08 02:24:49;;;;;;;19.25;4.47;;;22.80;62.20;;;;;;4878413;29;20029;-73
2022/07/08 02:27:15;;;;;;;17.90;4.13;;;22.80;62.10;;;;;;4878927;29;20138;-73
2022/07/08 02:29:41;;;;;;;16.40;3.95;;;22.80;62.60;;;;;;4879041;29;20039;-73
2022/07/08 02:32:07;;;;;;;13.35;3.65;;;22.80;61.60;;;;;;4879168;29;20032;-73
2022/07/08 02:34:33;;;;;;;13.43;3.22;;;22.70;61.80;;;;;;4883593;29;20037;-73
2022/07/08 02:36:59;;;;;;;19.08;4.70;;;22.80;61.90;;;;;;4879824;29;20663;-73
2022/07/08 02:39:25;;;;;;;17.63;4.53;;;22.80;62.00;;;;;;4887767;29;20033;-73
2022/07/08 02:41:51;;;;;;;15.82;3.50;;;22.70;61.90;;;;;;4883395;29;20501;-72
2022/07/08 02:44:18;;;;;;;14.63;3.45;;;22.70;61.70;;;;;;4885686;29;20036;-73
2022/07/08 02:46:45;;;;;;;16.63;3.95;;;22.70;61.70;;;;;;4875050;29;20085;-73
2022/07/08 02:49:11;;;;;;;13.80;3.17;;;22.70;61.80;;;;;;4885842;29;20028;-73
2022/07/08 02:51:38;;;;;;;16.60;3.42;;;22.70;61.80;;;;;;4877451;29;20045;-73
2022/07/08 02:54:04;;;;;;;14.27;3.25;;;22.70;62.40;;;;;;4876809;29;20045;-73
2022/07/08 02:56:31;;;;;;;15.45;3.28;;;22.70;61.70;;;;;;4882894;29;20043;-73
2022/07/08 02:58:58;;;;;;;20.02;4.18;;;22.70;61.90;;;;;;4887009;29;20149;-73
2022/07/08 03:01:24;;;;;;;15.75;3.50;;;22.70;62.40;;;;;;4897483;29;20033;-73
2022/07/08 03:03:49;;;;;;;16.05;3.28;;;22.70;61.80;;;;;;4880941;29;20558;-74
2022/07/08 03:06:15;;;;;;;14.07;3.15;;;22.70;61.60;;;;;;4885138;29;20025;-73
2022/07/08 03:08:41;;;;;;;13.48;3.05;;;22.70;61.50;;;;;;4887619;29;20028;-74
2022/07/08 03:11:07;;;;;;;17.92;3.58;;;22.70;61.80;;;;;;4883667;29;20480;-74
2022/07/08 03:13:35;;;;;;;15.57;3.75;;;22.70;61.50;;;;;;4884971;29;20032;-74
2022/07/08 03:16:01;;;;;;;12.25;2.95;;;22.70;61.60;;;;;;4872993;29;20037;-74
2022/07/08 03:18:27;;;;;;;17.10;3.28;;;22.70;61.70;;;;;;4880078;29;20042;-73
2022/07/08 03:20:53;;;;;;;13.70;3.00;;;22.70;62.00;;;;;;4887060;29;20045;-74
2022/07/08 03:23:19;;;;;;;14.77;3.30;;;22.70;61.60;;;;;;4888172;29;20024;-74
2022/07/08 03:25:46;;;;;;;15.50;2.95;;;22.70;61.90;;;;;;4879057;29;20025;-73
2022/07/08 03:28:12;;;;;;;14.60;3.50;;;22.70;61.70;;;;;;4889369;29;20108;-73
2022/07/08 03:30:38;;;;;;;13.95;3.30;;;22.70;61.90;;;;;;4887888;29;20113;-74
2022/07/08 03:33:04;;;;;;;12.38;3.13;;;22.70;61.70;;;;;;4881484;29;20508;-75
2022/07/08 03:35:30;;;;;;;12.13;3.03;;;22.70;61.70;;;;;;4886114;23;20047;-78
2022/07/08 03:37:55;;;;;;;18.20;4.00;;;22.70;62.00;;;;;;4868729;29;20121;-77
2022/07/08 03:43:05;;;;;;;15.02;3.10;;;22.70;62.00;;;;;;4871941;29;20413;-78
2022/07/08 03:45:31;;;;;;;16.02;3.42;;;22.70;61.40;;;;;;4870547;29;20033;-78
2022/07/08 03:47:57;;;;;;;14.95;2.95;;;22.70;61.70;;;;;;4871059;29;20068;-77
2022/07/08 03:50:23;;;;;;;13.77;3.33;;;22.70;61.50;;;;;;4868601;29;20025;-78
2022/07/08 03:52:49;;;;;;;17.45;3.53;;;22.60;61.60;;;;;;4868047;29;20044;-77
2022/07/08 03:55:15;;;;;;;16.05;2.75;;;22.70;61.60;;;;;;4871424;29;20037;-77
2022/07/08 03:57:40;;;;;;;15.35;3.33;;;22.70;61.20;;;;;;4862440;29;20508;-77
2022/07/08 04:00:07;;;;;;;13.25;3.60;;;22.60;61.90;;;;;;4868342;29;20027;-77
2022/07/08 04:02:34;;;;;;;17.98;3.00;;;22.70;61.60;;;;;;4870241;29;20783;-77
2022/07/08 04:05:00;;;;;;;18.77;3.25;;;22.60;61.20;;;;;;4851744;29;20120;-78
2022/07/08 04:07:26;;;;;;;19.10;4.07;;;22.60;61.50;;;;;;4854032;29;20474;-78
2022/07/08 04:09:52;;;;;;;17.70;3.65;;;22.60;61.10;;;;;;4847898;29;20067;-77
2022/07/08 04:12:18;;;;;;;13.57;3.40;;;22.60;61.20;;;;;;4869447;29;20025;-77
2022/07/08 04:14:44;;;;;;;13.88;3.38;;;22.70;61.70;;;;;;4867979;29;20045;-77
2022/07/08 04:17:10;;;;;;;16.40;3.00;;;22.60;61.20;;;;;;4852281;29;20092;-77
2022/07/08 04:19:36;;;;;;;14.35;3.38;;;22.60;61.20;;;;;;4871061;29;20437;-77
2022/07/08 04:22:02;;;;;;;18.25;3.97;;;22.60;61.30;;;;;;4855384;29;20042;-77
2022/07/08 04:24:28;;;;;;;16.08;3.53;;;22.60;61.40;;;;;;4870552;29;20034;-78
2022/07/08 04:26:53;;;;;;;12.07;3.67;;;22.60;61.30;;;;;;4869838;29;20478;-78
2022/07/08 04:29:19;;;;;;;14.15;3.03;;;22.60;61.00;;;;;;4870422;29;20529;-78
2022/07/08 04:31:45;;;;;;;12.20;2.70;;;22.60;61.20;;;;;;4862254;29;20386;-79
2022/07/08 04:34:11;;;;;;;12.35;3.15;;;22.60;61.10;;;;;;4868307;29;20038;-78
2022/07/08 04:36:36;;;;;;;13.40;3.35;;;22.60;61.90;;;;;;4869634;29;20032;-78
2022/07/08 04:39:02;;;;;;;14.98;3.40;;;22.60;61.50;;;;;;4870785;29;20097;-78
2022/07/08 04:41:28;;;;;;;11.85;2.95;;;22.60;61.30;;;;;;4874549;29;20563;-79
2022/07/08 04:43:54;;;;;;;12.18;2.85;;;22.60;61.30;;;;;;4870259;29;20495;-78
2022/07/08 04:46:20;;;;;;;10.65;2.70;;;22.60;61.90;;;;;;4869811;29;20036;-79
2022/07/08 04:48:45;;;;;;;18.45;3.42;;;22.60;61.30;;;;;;4866396;29;20029;-78
2022/07/08 04:51:11;;;;;;;12.90;2.97;;;22.60;61.30;;;;;;4867806;29;20025;-79
2022/07/08 04:53:37;;;;;;;10.43;2.63;;;22.60;61.20;;;;;;4871909;29;20028;-79
2022/07/08 04:56:03;;;;;;;13.63;3.00;;;22.60;61.20;;;;;;4871578;29;20029;-79
2022/07/08 04:58:29;;;;;;;17.67;3.03;;;22.60;61.60;;;;;;4867976;29;20474;-78
2022/07/08 05:00:55;;;;;;;15.95;2.70;;;22.50;61.30;;;;;;4869226;29;20072;-78
2022/07/08 05:03:20;;;;;;;16.00;3.88;;;22.50;61.40;;;;;;4866387;29;20021;-78
2022/07/08 05:05:46;;;;;;;14.00;3.15;;;22.60;61.80;;;;;;4870767;29;20029;-78
2022/07/08 05:08:12;;;;;;;12.30;3.03;;;22.50;61.60;;;;;;4870309;29;20446;-80
2022/07/08 05:10:38;;;;;;;11.23;2.92;;;22.50;61.70;;;;;;4865631;29;20024;-80
2022/07/08 05:13:05;;;;;;;14.50;3.00;;;22.50;61.30;;;;;;4870766;29;20505;-80
2022/07/08 05:15:31;;;;;;;10.38;2.80;;;22.50;61.20;;;;;;4867631;29;20021;-81
2022/07/08 05:17:57;;;;;;;16.38;3.10;;;22.50;61.20;;;;;;4867660;29;20382;-80
2022/07/08 05:20:22;;;;;;;11.00;2.60;;;22.50;61.30;;;;;;4876490;29;20510;-78
2022/07/08 05:22:48;;;;;;;11.90;3.65;;;22.50;61.00;;;;;;4867077;29;20033;-79
2022/07/08 05:25:14;;;;;;;12.85;3.47;;;22.50;61.50;;;;;;4868836;29;20029;-78
2022/07/08 05:27:40;;;;;;;12.35;3.17;;;22.60;61.20;;;;;;4868636;29;20104;-78
2022/07/08 05:30:08;;;;;;;10.75;2.90;;;22.60;61.10;;;;;;4868615;29;20064;-78
2022/07/08 05:32:35;;;;;;;12.98;2.88;;;22.60;61.10;;;;;;4862881;29;20037;-78
2022/07/08 05:35:05;;;;;;;16.85;2.92;;;22.50;61.00;;;;;;4868903;29;20029;-78
2022/07/08 05:37:31;;;;;;;9.57;2.63;;;22.50;60.80;;;;;;4867664;29;20041;-78
2022/07/08 05:39:58;;;;;;;11.90;3.25;;;22.50;60.90;;;;;;4867289;29;20463;-78
2022/07/08 05:42:24;;;;;;;11.25;2.63;;;22.50;60.70;;;;;;4866500;29;20550;-78
2022/07/08 05:44:50;;;;;;;8.13;2.20;;;22.50;60.70;;;;;;4868934;29;20033;-78
2022/07/08 05:47:16;;;;;;;8.63;2.13;;;22.50;60.70;;;;;;4848781;29;20088;-78
2022/07/08 05:49:44;;;;;;;11.13;2.95;;;22.50;60.50;;;;;;4864772;29;20427;-79
2022/07/08 05:52:11;;;;;;;11.32;2.80;;;22.50;60.60;;;;;;4881259;29;20048;-79
2022/07/08 05:54:38;;;;;;;10.50;2.58;;;22.50;60.40;;;;;;4870026;29;20037;-79
2022/07/08 05:57:04;;;;;;;13.07;2.72;;;22.50;60.30;;;;;;4878961;29;20505;-79
2022/07/08 05:59:31;;;;;;;12.02;2.42;;;22.50;60.40;;;;;;4841512;29;20109;-79
2022/07/08 06:01:57;;;;;;;9.05;2.50;;;22.50;60.40;;;;;;4863762;29;20080;-79
2022/07/08 06:04:23;;;;;;;9.65;2.42;;;22.50;60.70;;;;;;4868037;29;20045;-79
2022/07/08 06:06:49;;;;;;;13.43;2.78;;;22.50;60.60;;;;;;4863034;29;20060;-78
2022/07/08 06:09:15;;;;;;;11.13;2.97;;;22.50;60.30;;;;;;4863935;29;20037;-79
2022/07/08 06:11:41;;;;;;;13.05;2.70;;;22.50;60.70;;;;;;4869790;29;20393;-78
2022/07/08 06:14:07;;;;;;;8.40;2.35;;;22.40;60.40;;;;;;4837399;29;20121;-78
2022/07/08 06:16:32;;;;;;;12.52;2.33;;;22.50;60.20;;;;;;4884274;29;20482;-79
2022/07/08 06:18:58;;;;;;;12.05;2.70;;;22.50;60.40;;;;;;4868865;29;20063;-79
2022/07/08 06:21:24;;;;;;;10.25;2.40;;;22.40;60.40;;;;;;4864486;29;20036;-79
2022/07/08 06:23:50;;;;;;;14.45;2.60;;;22.40;60.50;;;;;;4870396;29;20025;-79
2022/07/08 06:26:17;;;;;;;11.20;2.45;;;22.50;60.20;;;;;;4872968;29;20024;-80
2022/07/08 06:28:43;;;;;;;11.57;2.80;;;22.40;60.30;;;;;;4869932;29;20021;-80
2022/07/08 06:31:09;;;;;;;12.75;3.05;;;22.40;60.70;;;;;;4867884;29;20036;-79
2022/07/08 06:33:35;;;;;;;9.48;2.35;;;22.40;60.10;;;;;;4866939;29;20102;-79
2022/07/08 06:36:01;;;;;;;9.93;2.85;;;22.40;60.00;;;;;;4863316;29;20123;-77
2022/07/08 06:38:26;;;;;;;11.05;2.80;;;22.50;60.20;;;;;;4866246;29;20486;-77
2022/07/08 06:40:52;;;;;;;8.75;2.42;;;22.40;60.20;;;;;;4862332;29;20033;-78
2022/07/08 06:43:18;;;;;;;13.80;2.67;;;22.40;60.10;;;;;;4867146;29;20124;-77
2022/07/08 06:45:49;;;;;;;12.52;2.88;;;22.40;60.00;;;;;;4869086;29;20069;-77
2022/07/08 06:48:14;;;;;;;10.35;2.45;;;22.40;59.80;;;;;;4866363;29;20032;-77
2022/07/08 06:50:40;;;;;;;14.30;3.13;;;22.40;59.80;;;;;;4868108;29;20029;-77
2022/07/08 06:53:06;;;;;;;13.45;2.65;;;22.40;60.50;;;;;;4867933;29;20036;-78
2022/07/08 06:55:32;;;;;;;10.55;3.22;;;22.40;60.00;;;;;;4865571;29;20112;-78
2022/07/08 06:57:58;;;;;;;7.45;2.40;;;22.40;59.80;;;;;;4861706;29;20112;-79
2022/07/08 07:00:24;;;;;;;11.20;2.70;;;22.40;60.10;;;;;;4865993;29;20022;-79
2022/07/08 07:02:50;;;;;;;13.43;2.63;;;22.40;59.70;;;;;;4876041;29;20442;-79
2022/07/08 07:05:18;;;;;;;13.85;3.33;;;22.40;59.80;;;;;;4859184;29;20069;-77
2022/07/08 07:07:43;;;;;;;10.55;2.72;;;22.30;59.70;;;;;;4846091;29;20140;-77
2022/07/08 07:10:09;;;;;;;13.05;2.88;;;22.40;59.70;;;;;;4865581;29;20113;-81
2022/07/08 07:12:35;;;;;;;12.27;2.97;;;22.40;59.70;;;;;;4868233;29;20519;-80
2022/07/08 07:15:01;;;;;;;14.02;3.45;;;22.40;59.70;;;;;;4866203;29;20033;-77
2022/07/08 07:17:27;;;;;;;15.00;3.35;;;22.40;59.60;;;;;;4869695;29;20033;-77
2022/07/08 07:19:53;;;;;;;19.17;5.80;;;22.40;59.70;;;;;;4855769;29;20044;-71
2022/07/08 07:22:19;;;;;;;18.95;4.00;;;22.40;59.60;;;;;;4857073;29;20049;-72
2022/07/08 07:24:44;;;;;;;16.83;3.88;;;22.20;58.10;;;;;;4865331;29;20113;-73
2022/07/08 07:27:11;;;;;;;12.63;2.95;;;22.10;58.30;;;;;;4860309;29;20113;-73
2022/07/08 07:29:36;;;;;;;16.50;4.03;;;22.00;58.50;;;;;;4872106;29;20033;-71
2022/07/08 07:32:02;;;;;;;12.13;2.92;;;22.00;58.70;;;;;;4865406;29;20026;-72
2022/07/08 07:34:28;;;;;;;12.55;2.70;;;22.00;58.20;;;;;;4875551;29;20135;-71
2022/07/08 07:36:54;;;;;;;17.15;3.55;;;21.90;58.30;;;;;;4865175;29;20124;-72
2022/07/08 07:39:20;;;;;;;16.30;3.05;;;21.90;57.90;;;;;;4876953;29;20040;-72
2022/07/08 07:41:46;;;;;;;15.55;2.95;;;21.90;57.70;;;;;;4872029;29;20447;-71
2022/07/08 07:44:12;;;;;;;19.55;3.25;;;21.90;57.40;;;;;;4878113;29;20033;-71
2022/07/08 07:46:38;;;;;;;14.82;2.97;;;21.80;57.20;;;;;;4885851;29;20021;-71
2022/07/08 07:49:04;;;;;;;11.85;2.90;;;21.80;57.20;;;;;;4865862;29;20026;-71
2022/07/08 07:51:30;;;;;;;15.10;3.22;;;21.80;57.00;;;;;;4862669;29;20033;-72
2022/07/08 07:53:55;;;;;;;14.95;3.22;;;21.80;56.90;;;;;;4848382;29;20050;-72
2022/07/08 07:56:23;;;;;;;14.90;2.72;;;21.80;57.00;;;;;;4854698;29;20056;-72
2022/07/08 07:58:49;;;;;;;13.55;3.42;;;21.80;56.90;;;;;;4859454;29;20029;-72
2022/07/08 08:01:15;;;;;;;13.65;3.47;;;21.80;57.00;;;;;;4869903;29;20052;-72
2022/07/08 08:03:41;;;;;;;14.20;3.28;;;21.80;56.90;;;;;;4875623;29;20029;-71
2022/07/08 08:06:07;;;;;;;12.65;2.85;;;21.70;56.90;;;;;;4867676;29;20474;-72
2022/07/08 08:08:34;;;;;;;19.73;3.00;;;21.70;56.60;;;;;;4862664;29;20021;-72
2022/07/08 08:11:00;;;;;;;15.25;3.15;;;21.70;56.50;;;;;;4869904;29;20066;-72
2022/07/08 08:13:27;;;;;;;9.02;2.47;;;21.70;56.50;;;;;;4867947;29;20105;-75
2022/07/08 08:15:53;;;;;;;22.13;3.70;;;21.80;57.30;;;;;;4852700;29;20555;-75
2022/07/08 08:18:19;;;;;;;10.27;2.40;;;21.90;57.00;;;;;;4870035;29;20060;-75
2022/07/08 08:20:45;;;;;;;13.75;2.67;;;22.00;56.80;;;;;;4870989;29;20486;-76
2022/07/08 08:23:11;;;;;;;10.02;2.30;;;22.00;56.90;;;;;;4864624;29;20026;-75
2022/07/08 08:25:37;;;;;;;16.52;3.17;;;22.10;57.20;;;;;;4861727;29;20021;-75
2022/07/08 08:28:04;;;;;;;10.70;3.13;;;22.10;58.10;;;;;;4867446;29;20108;-75
2022/07/08 08:30:30;;;;;;;13.75;2.33;;;22.20;58.30;;;;;;4869769;29;20032;-75
2022/07/08 08:32:56;;;;;;;16.58;3.20;;;22.20;58.20;;;;;;4875419;29;20037;-75
2022/07/08 08:35:22;;;;;;;18.10;3.47;;;22.20;58.30;;;;;;4871785;29;20394;-75
2022/07/08 08:37:48;;;;;;;19.58;3.03;;;22.20;58.30;;;;;;4871572;29;20030;-75
2022/07/08 08:40:14;;;;;;;21.42;3.47;;;22.20;58.40;;;;;;4868490;29;20036;-75
2022/07/08 08:42:41;;;;;;;18.77;3.70;;;22.30;58.40;;;;;;4866570;29;20026;-76
2022/07/08 08:45:08;;;;;;;19.67;3.45;;;22.30;58.50;;;;;;4871499;29;20133;-75
2022/07/08 08:47:36;;;;;;;14.52;3.25;;;22.30;58.60;;;;;;4867953;29;20112;-75
2022/07/08 08:52:53;;;;;;;15.13;3.13;;;22.30;58.70;;;;;;4872297;29;20036;-76
2022/07/08 08:55:30;;;;;;;18.25;3.08;;;22.30;59.10;;;;;;4868433;29;20515;-75
2022/07/08 08:58:04;;;;;;;16.40;2.55;;;22.30;59.10;;;;;;4860419;29;20395;-76
2022/07/08 09:00:32;;;;;;;18.27;3.00;;;22.30;59.40;;;;;;4867927;29;20045;-76
2022/07/08 09:02:58;;;;;;;20.67;2.90;;;22.30;59.90;;;;;;4868325;29;20044;-75
2022/07/08 09:05:26;;;;;;;14.13;2.95;;;22.40;59.50;;;;;;4858935;29;20026;-75
2022/07/08 09:07:52;;;;;;;27.63;3.03;;;22.40;60.70;;;;;;4859819;29;20029;-75
2022/07/08 09:10:19;;;;;;;14.30;3.00;;;22.40;60.40;;;;;;4860903;29;20033;-75
2022/07/08 09:13:02;;;;;;;15.95;3.50;;;22.40;59.80;;;;;;4866267;29;20095;-75
2022/07/08 09:15:45;;;;;;;14.77;4.05;;;22.40;59.70;;;;;;4862078;29;20065;-75
2022/07/08 09:18:16;;;;;;;11.05;3.55;;;22.30;59.70;;;;;;4857652;29;20030;-75
2022/07/08 09:20:46;;;;;;;17.58;3.35;;;22.40;60.00;;;;;;4864322;29;20026;-75
2022/07/08 09:23:17;;;;;;;12.07;3.05;;;22.40;59.80;;;;;;4874510;29;20033;-75
2022/07/08 09:25:46;;;;;;;17.05;3.20;;;22.40;60.00;;;;;;4862289;29;20039;-75
2022/07/08 09:28:12;;;;;;;10.75;2.65;;;22.40;60.00;;;;;;4866614;29;20029;-76
2022/07/08 09:30:39;;;;;;;11.55;2.50;;;22.40;60.20;;;;;;4869662;29;20108;-76
2022/07/08 09:33:05;;;;;;;15.48;2.90;;;22.40;60.20;;;;;;4871657;29;20044;-75
2022/07/08 09:35:38;;;;;;;14.40;3.08;;;22.40;60.30;;;;;;4870808;29;20398;-76
2022/07/08 09:38:06;;;;;;;11.43;2.83;;;22.40;60.10;;;;;;4850303;29;20061;-81
2022/07/08 09:40:33;;;;;;;12.02;2.90;;;22.40;60.30;;;;;;4840711;29;20168;-81
2022/07/08 09:43:10;;;;;;;12.25;2.60;;;22.40;60.50;;;;;;4840091;29;20094;-81
2022/07/08 09:45:36;;;;;;;14.90;2.97;;;22.40;60.50;;;;;;4847446;29;20114;-81
2022/07/08 09:48:04;;;;;;;14.25;2.80;;;22.40;60.40;;;;;;4837138;29;20069;-80
2022/07/08 09:50:44;;;;;;;11.98;2.50;;;22.40;60.70;;;;;;4854904;29;20066;-80
2022/07/08 09:53:18;;;;;;;9.40;2.85;;;22.40;60.70;;;;;;4837588;29;20034;-80
2022/07/08 09:55:47;;;;;;;8.75;2.45;;;22.40;60.70;;;;;;4839293;29;20044;-80
2022/07/08 09:58:14;;;;;;;12.32;2.92;;;22.40;61.20;;;;;;4841333;29;20113;-80
2022/07/08 10:00:41;;;;;;;14.70;2.92;;;22.40;60.90;;;;;;4839388;29;20022;-82
2022/07/08 10:03:07;;;;;;;9.38;2.92;;;22.40;61.10;;;;;;4840833;29;20030;-82
2022/07/08 10:05:33;;;;;;;16.08;2.88;;;22.40;61.60;;;;;;4829365;29;20053;-83
2022/07/08 10:07:59;;;;;;;9.93;2.47;;;22.40;61.50;;;;;;4840436;29;20026;-83
2022/07/08 10:10:26;;;;;;;14.98;3.60;;;22.40;61.20;;;;;;4839661;29;20431;-82
2022/07/08 10:12:59;;;;;;;9.65;2.58;;;22.40;60.70;;;;;;4841254;29;20030;-88
2022/07/08 10:15:26;;;;;;;10.90;2.47;;;22.40;61.10;;;;;;4841926;29;20037;-88
2022/07/08 10:17:53;;;;;;;15.80;2.80;;;22.40;60.80;;;;;;4842240;29;20042;-82
2022/07/08 10:20:22;;;;;;;15.05;3.35;;;22.40;61.40;;;;;;4840606;29;20044;-85
2022/07/08 10:22:51;;;;;;;14.02;4.00;;;22.50;61.10;;;;;;4841611;29;20030;-87
2022/07/08 10:25:20;;;;;;;15.63;2.80;;;22.50;61.20;;;;;;4842550;29;20605;-86
2022/07/08 10:27:47;;;;;;;8.40;2.58;;;22.50;61.00;;;;;;4839716;29;20034;-86
2022/07/08 10:30:18;;;;;;;16.17;3.03;;;22.50;61.10;;;;;;4840697;29;20053;-85
2022/07/08 10:32:48;;;;;;;13.55;2.67;;;22.50;61.10;;;;;;4840102;29;20427;-84
2022/07/08 10:35:17;;;;;;;;;;;22.50;61.10;;;;;;4842578;29;20026;-84
2022/07/08 10:37:47;;;;;;;16.58;3.50;;;22.50;61.30;;;;;;4855113;29;20008;-82
2022/07/08 10:40:33;;;;;;;10.90;2.58;;;22.50;61.10;;;;;;4822378;29;20572;-86
2022/07/08 10:43:06;;;;;;;10.77;2.42;;;22.60;61.00;;;;;;4841844;29;20495;-82
2022/07/08 10:46:20;;;;;;;19.33;3.97;;;22.60;61.10;;;;;;4840410;29;20022;-85
2022/07/08 10:48:50;;;;;;;14.95;2.95;;;22.60;61.00;;;;;;4840052;29;20479;-85
2022/07/08 10:51:24;;;;;;;11.35;2.67;;;22.60;61.10;;;;;;4839925;29;20033;-84
2022/07/08 10:53:59;;;;;;;12.95;2.67;;;22.60;61.00;;;;;;4841502;29;20391;-87
2022/07/08 10:56:54;;;;;;;11.77;3.25;;;22.60;61.20;;;;;;4840320;29;20041;-87
2022/07/08 10:59:28;;;;;;;9.30;2.50;;;22.70;60.90;;;;;;4838278;29;20472;-83
2022/07/08 11:02:05;;;;;;;15.63;3.03;;;22.60;61.60;;;;;;4840915;29;20491;-81
2022/07/08 11:04:34;;;;;;;13.95;3.05;;;22.70;62.00;;;;;;4854363;29;20030;-80
2022/07/08 11:07:27;;;;;;;14.80;2.35;;;22.60;61.70;;;;;;4850530;29;20415;-86
2022/07/08 11:09:57;;;;;;;11.38;2.67;;;22.70;61.50;;;;;;4838606;29;20090;-84
2022/07/08 11:12:35;;;;;;;14.40;3.00;;;22.70;61.60;;;;;;4837104;29;20103;-80
2022/07/08 11:15:05;;;;;;;12.00;2.42;;;22.60;61.60;;;;;;4840347;29;20045;-85
2022/07/08 11:17:35;;;;;;;;;;;22.60;61.80;;;;;;4841361;29;20045;-79
2022/07/08 11:20:02;;;;;;;;;;;22.60;61.70;;;;;;4842531;29;19913;-78
2022/07/08 11:22:34;;;;;;;12.00;2.88;;;22.70;61.60;;;;;;4856253;29;19920;-75
2022/07/08 11:25:01;;;;;;;18.17;2.78;;;22.70;61.90;;;;;;4840775;29;20110;-77
2022/07/08 11:27:31;;;;;;;11.18;2.70;;;22.60;61.70;;;;;;4839653;29;20033;-77
2022/07/08 11:29:57;;;;;;;11.38;3.58;;;22.60;60.90;;;;;;4824796;29;20057;-84
2022/07/08 11:32:25;;;;;;;11.85;3.05;;;22.60;59.20;;;;;;4840757;29;20108;-84
2022/07/08 11:34:53;;;;;;;9.82;3.08;;;22.60;59.80;;;;;;4840857;29;20518;-84
2022/07/08 11:37:19;;;;;;;16.75;3.22;;;22.50;60.50;;;;;;4841229;29;20040;-74
2022/07/08 11:39:45;;;;;;;17.05;2.70;;;22.60;59.80;;;;;;4841995;29;20094;-83
2022/07/08 11:42:12;;;;;;;10.32;2.67;;;22.60;60.10;;;;;;4835928;29;20030;-84
2022/07/08 11:44:38;;;;;;;13.50;2.60;;;22.60;59.80;;;;;;4842713;29;20065;-84
2022/07/08 11:47:05;;;;;;;13.40;2.53;;;22.60;59.90;;;;;;4841917;29;20531;-83
2022/07/08 11:49:32;;;;;;;22.05;3.20;;;22.60;60.10;;;;;;4842589;29;20038;-84
2022/07/08 11:51:58;;;;;;;12.00;2.92;;;22.60;60.40;;;;;;4844309;29;20486;-84
2022/07/08 11:54:26;;;;;;;20.48;3.22;;;22.60;60.30;;;;;;4843238;29;20486;-86
2022/07/08 11:56:57;;;;;;;12.32;2.83;;;22.60;60.40;;;;;;4843146;29;20042;-83
2022/07/08 11:59:25;;;;;;;13.30;2.85;;;22.70;60.60;;;;;;4842600;29;20495;-75
2022/07/08 12:01:52;;;;;;;8.65;3.10;;;22.70;60.50;;;;;;4841386;29;20033;-75
2022/07/08 12:04:19;;;;;;;13.73;3.83;;;22.60;60.20;;;;;;4826843;29;20042;-74
2022/07/08 12:06:47;;;;;;;20.98;4.40;;;22.60;59.20;;;;;;4841350;29;20034;-73
2022/07/08 12:09:17;;;;;;;13.02;4.25;;;22.60;59.10;;;;;;4841337;29;20113;-77
2022/07/08 12:11:45;;;;;;;13.82;4.15;;;22.60;58.90;;;;;;4843273;29;20515;-78
2022/07/08 12:14:12;;;;;;;14.48;4.55;;;22.60;58.80;;;;;;4842516;29;20211;-80
2022/07/08 12:16:51;;;;;;;13.18;5.65;;;22.60;57.90;;;;;;4843509;29;20034;-80
2022/07/08 12:19:37;;;;;;;16.25;3.55;;;22.50;57.50;;;;;;4839510;29;20452;-79
2022/07/08 12:22:07;;;;;;;11.05;2.60;;;22.50;58.40;;;;;;4840411;29;20056;-78
2022/07/08 12:24:38;;;;;;;9.32;3.00;;;22.50;58.00;;;;;;4840336;29;20105;-79
2022/07/08 12:27:17;;;;;;;18.23;3.33;;;22.50;57.60;;;;;;4840520;29;20026;-76
2022/07/08 12:29:43;;;;;;;11.38;2.58;;;22.50;56.20;;;;;;4846970;29;20026;-79
2022/07/08 12:32:11;;;;;;;12.38;2.90;;;22.50;56.40;;;;;;4841072;29;20067;-78
2022/07/08 12:34:37;;;;;;;12.35;2.42;;;22.50;56.00;;;;;;4840475;29;20080;-77
2022/07/08 12:37:19;;;;;;;11.93;3.45;;;22.50;55.70;;;;;;4824612;29;20081;-77
2022/07/08 12:39:46;;;;;;;26.52;13.65;;;22.50;56.90;;;;;;4836066;29;20036;-77
2022/07/08 12:42:12;;;;;;;27.58;11.73;;;22.50;56.50;;;;;;4823976;29;20046;-76
2022/07/08 12:44:42;;;;;;;17.80;9.05;;;22.40;55.30;;;;;;4841497;29;20090;-75